Snowden, Virginia
Current Conditions -  °F | °C
As of 9:21 AM on Monday 22 Dec 2014 (Local Time) from KLYH Reporting Station
Freezing Rain Freezing Rain  
Wind Chill: 23°   Ceiling: 2200
Heat Index: 32°   Visibility: 2.5mi
Dew Point: 31°   Wind: 13mph
Humidity: 96%   Direction: 20°NNE
Pressure: 30.23"   Gusts: NA
Location:  37.5466°N, 79.4046°W
Report Text: KLYH 221421Z 02011KT 2 1/2SM FZRA BR SCT010 BKN022 OVC047 00/M01 A3023 RMK AO2 UPE00RAB01E02FZRAB02 P0001 T00001006
Loading
Personal Weather Stations






























Interactive Weather Map New forecast layout! Learn more

10-Day Weather Forecast

Advertisements
Track Severe Weather on mobile